Terminal Aerodrome Forecast
Issued by NWS Medford, OR

Home | Current Version | Previous Version | Text Only | Print | Product List | Glossary On
Versions: 1 2 3 4 5 6 7 8 9 10 11 12 13 14 15 16
000
FTUS46 KMFR 291151
TAFMFR
TAF
KMFR 291151Z 2912/3012 30008KT P6SM -RA SCT050 OVC080
     FM291500 30006KT P6SM -SHRA SCT035 BKN060
     FM291800 24008KT P6SM VCSH BKN060 BKN080
     FM292000 28012G20KT P6SM SCT060 BKN080
     FM300300 29006KT P6SM SCT060 SCT080=

USA.gov is the U.S. government's official web portal to all federal, state and local government web resources and services.